sensor_id;sensor_type;location;lat;lon;timestamp;pressure;altitude;pressure_sealevel;temperature
70819;BMP280;58439;51.046;13.692;2022-08-21T00:00:23;100078.34;;;19.07
70819;BMP280;58439;51.046;13.692;2022-08-21T00:03:04;100084.44;;;19.07
70819;BMP280;58439;51.046;13.692;2022-08-21T00:05:38;100086.03;;;19.08
70819;BMP280;58439;51.046;13.692;2022-08-21T00:08:05;100093.75;;;19.10
70819;BMP280;58439;51.046;13.692;2022-08-21T00:10:33;100085.84;;;18.88
70819;BMP280;58439;51.046;13.692;2022-08-21T00:13:03;100080.56;;;18.61
70819;BMP280;58439;51.046;13.692;2022-08-21T00:15:34;100077.47;;;18.52
70819;BMP280;58439;51.046;13.692;2022-08-21T00:18:04;100077.72;;;18.46
70819;BMP280;58439;51.046;13.692;2022-08-21T00:20:34;100070.78;;;18.45
70819;BMP280;58439;51.046;13.692;2022-08-21T00:23:01;100070.72;;;18.39
70819;BMP280;58439;51.046;13.692;2022-08-21T00:25:28;100078.88;;;18.33
70819;BMP280;58439;51.046;13.692;2022-08-21T00:27:56;100072.78;;;18.32
70819;BMP280;58439;51.046;13.692;2022-08-21T00:30:25;100079.97;;;18.37
70819;BMP280;58439;51.046;13.692;2022-08-21T00:32:55;100078.44;;;18.41
70819;BMP280;58439;51.046;13.692;2022-08-21T00:35:31;100071.31;;;18.42
70819;BMP280;58439;51.046;13.692;2022-08-21T00:37:59;100073.38;;;18.39
70819;BMP280;58439;51.046;13.692;2022-08-21T00:40:34;100074.81;;;18.47
70819;BMP280;58439;51.046;13.692;2022-08-21T00:43:08;100076.31;;;18.43
70819;BMP280;58439;51.046;13.692;2022-08-21T00:45:37;100076.91;;;18.45
70819;BMP280;58439;51.046;13.692;2022-08-21T00:48:04;100084.91;;;18.50
70819;BMP280;58439;51.046;13.692;2022-08-21T00:50:35;100084.13;;;18.50
70819;BMP280;58439;51.046;13.692;2022-08-21T00:53:06;100079.63;;;18.50
70819;BMP280;58439;51.046;13.692;2022-08-21T00:55:36;100074.81;;;18.47
70819;BMP280;58439;51.046;13.692;2022-08-21T00:58:21;100077.47;;;18.47
70819;BMP280;58439;51.046;13.692;2022-08-21T01:00:55;100076.38;;;18.48
70819;BMP280;58439;51.046;13.692;2022-08-21T01:03:23;100078.00;;;18.49
70819;BMP280;58439;51.046;13.692;2022-08-21T01:05:52;100082.00;;;18.52
70819;BMP280;58439;51.046;13.692;2022-08-21T01:08:21;100077.81;;;18.56
70819;BMP280;58439;51.046;13.692;2022-08-21T01:10:52;100091.91;;;18.61
70819;BMP280;58439;51.046;13.692;2022-08-21T01:13:26;100092.47;;;18.63
70819;BMP280;58439;51.046;13.692;2022-08-21T01:15:59;100090.63;;;18.64
70819;BMP280;58439;51.046;13.692;2022-08-21T01:18:28;100087.41;;;18.62
70819;BMP280;58439;51.046;13.692;2022-08-21T01:21:05;100096.03;;;18.52
70819;BMP280;58439;51.046;13.692;2022-08-21T01:23:35;100097.06;;;18.46
70819;BMP280;58439;51.046;13.692;2022-08-21T01:26:05;100098.50;;;18.37
70819;BMP280;58439;51.046;13.692;2022-08-21T01:28:39;100108.50;;;18.30
70819;BMP280;58439;51.046;13.692;2022-08-21T01:31:10;100098.38;;;18.27
70819;BMP280;58439;51.046;13.692;2022-08-21T01:33:39;100100.88;;;18.17
70819;BMP280;58439;51.046;13.692;2022-08-21T01:36:07;100101.06;;;18.10
70819;BMP280;58439;51.046;13.692;2022-08-21T01:38:34;100096.91;;;17.97
70819;BMP280;58439;51.046;13.692;2022-08-21T01:41:01;100094.13;;;17.87
70819;BMP280;58439;51.046;13.692;2022-08-21T01:43:28;100097.50;;;17.83
70819;BMP280;58439;51.046;13.692;2022-08-21T01:46:05;100098.75;;;17.80
70819;BMP280;58439;51.046;13.692;2022-08-21T01:48:36;100100.28;;;17.76
70819;BMP280;58439;51.046;13.692;2022-08-21T01:51:24;100098.25;;;17.78
70819;BMP280;58439;51.046;13.692;2022-08-21T01:53:55;100108.31;;;17.81
70819;BMP280;58439;51.046;13.692;2022-08-21T01:56:28;100106.69;;;17.80
70819;BMP280;58439;51.046;13.692;2022-08-21T01:59:09;100102.94;;;17.76
70819;BMP280;58439;51.046;13.692;2022-08-21T02:01:41;100104.47;;;17.72
70819;BMP280;58439;51.046;13.692;2022-08-21T02:04:18;100098.38;;;17.71
70819;BMP280;58439;51.046;13.692;2022-08-21T02:06:50;100101.03;;;17.71
70819;BMP280;58439;51.046;13.692;2022-08-21T02:09:30;100100.88;;;17.78
70819;BMP280;58439;51.046;13.692;2022-08-21T02:12:00;100100.28;;;17.76
70819;BMP280;58439;51.046;13.692;2022-08-21T02:14:36;100092.03;;;17.72
70819;BMP280;58439;51.046;13.692;2022-08-21T02:17:18;100089.97;;;17.74
70819;BMP280;58439;51.046;13.692;2022-08-21T02:19:49;100083.06;;;17.73
70819;BMP280;58439;51.046;13.692;2022-08-21T02:22:25;100088.91;;;17.75
70819;BMP280;58439;51.046;13.692;2022-08-21T02:24:57;100088.66;;;17.77
70819;BMP280;58439;51.046;13.692;2022-08-21T02:27:25;100091.00;;;17.73
70819;BMP280;58439;51.046;13.692;2022-08-21T02:29:57;100086.81;;;17.77
70819;BMP280;58439;51.046;13.692;2022-08-21T02:32:25;100081.53;;;17.77
70819;BMP280;58439;51.046;13.692;2022-08-21T02:34:53;100083.38;;;17.77
70819;BMP280;58439;51.046;13.692;2022-08-21T02:37:20;100085.81;;;17.79
70819;BMP280;58439;51.046;13.692;2022-08-21T02:39:47;100081.63;;;17.83
70819;BMP280;58439;51.046;13.692;2022-08-21T02:42:15;100090.38;;;17.83
70819;BMP280;58439;51.046;13.692;2022-08-21T02:44:47;100084.50;;;17.81
70819;BMP280;58439;51.046;13.692;2022-08-21T02:47:14;100083.47;;;17.82
70819;BMP280;58439;51.046;13.692;2022-08-21T02:49:41;100079.78;;;17.83
70819;BMP280;58439;51.046;13.692;2022-08-21T02:52:10;100079.19;;;17.81
70819;BMP280;58439;51.046;13.692;2022-08-21T02:54:38;100078.47;;;17.86
70819;BMP280;58439;51.046;13.692;2022-08-21T02:57:05;100083.53;;;17.87
70819;BMP280;58439;51.046;13.692;2022-08-21T02:59:32;100077.75;;;17.90
70819;BMP280;58439;51.046;13.692;2022-08-21T03:01:59;100078.25;;;17.87
70819;BMP280;58439;51.046;13.692;2022-08-21T03:04:26;100084.03;;;17.84
70819;BMP280;58439;51.046;13.692;2022-08-21T03:06:53;100076.56;;;17.81
70819;BMP280;58439;51.046;13.692;2022-08-21T03:09:20;100062.84;;;17.84
70819;BMP280;58439;51.046;13.692;2022-08-21T03:11:47;100063.97;;;17.88
70819;BMP280;58439;51.046;13.692;2022-08-21T03:14:15;100067.16;;;17.90
70819;BMP280;58439;51.046;13.692;2022-08-21T03:16:42;100070.97;;;17.94
70819;BMP280;58439;51.046;13.692;2022-08-21T03:19:09;100073.03;;;17.92
70819;BMP280;58439;51.046;13.692;2022-08-21T03:21:36;100068.69;;;17.86
70819;BMP280;58439;51.046;13.692;2022-08-21T03:24:09;100073.16;;;17.86
70819;BMP280;58439;51.046;13.692;2022-08-21T03:26:40;100070.88;;;17.89
70819;BMP280;58439;51.046;13.692;2022-08-21T03:29:07;100067.88;;;17.86
70819;BMP280;58439;51.046;13.692;2022-08-21T03:31:34;100069.34;;;17.76
70819;BMP280;58439;51.046;13.692;2022-08-21T03:34:01;100074.19;;;17.80
70819;BMP280;58439;51.046;13.692;2022-08-21T03:36:31;100085.22;;;17.93
70819;BMP280;58439;51.046;13.692;2022-08-21T03:38:58;100082.06;;;17.96
70819;BMP280;58439;51.046;13.692;2022-08-21T03:41:25;100094.56;;;18.01
70819;BMP280;58439;51.046;13.692;2022-08-21T03:43:52;100099.06;;;18.00
70819;BMP280;58439;51.046;13.692;2022-08-21T03:46:20;100102.44;;;17.96
70819;BMP280;58439;51.046;13.692;2022-08-21T03:48:47;100093.69;;;17.95
70819;BMP280;58439;51.046;13.692;2022-08-21T03:51:15;100092.34;;;17.93
70819;BMP280;58439;51.046;13.692;2022-08-21T03:53:42;100098.53;;;17.98
70819;BMP280;58439;51.046;13.692;2022-08-21T03:56:12;100097.81;;;18.03
70819;BMP280;58439;51.046;13.692;2022-08-21T03:58:45;100100.06;;;17.94
70819;BMP280;58439;51.046;13.692;2022-08-21T04:01:23;100099.63;;;17.86
70819;BMP280;58439;51.046;13.692;2022-08-21T04:03:51;100094.63;;;17.84
70819;BMP280;58439;51.046;13.692;2022-08-21T04:06:23;100098.31;;;17.83
70819;BMP280;58439;51.046;13.692;2022-08-21T04:08:56;100106.78;;;17.85
70819;BMP280;58439;51.046;13.692;2022-08-21T04:11:23;100099.41;;;17.87
70819;BMP280;58439;51.046;13.692;2022-08-21T04:13:50;100106.31;;;17.88
70819;BMP280;58439;51.046;13.692;2022-08-21T04:16:18;100110.00;;;17.87
70819;BMP280;58439;51.046;13.692;2022-08-21T04:18:46;100098.38;;;17.88
70819;BMP280;58439;51.046;13.692;2022-08-21T04:21:13;100101.91;;;17.94
70819;BMP280;58439;51.046;13.692;2022-08-21T04:23:41;100111.84;;;18.03
70819;BMP280;58439;51.046;13.692;2022-08-21T04:26:08;100106.38;;;18.10
70819;BMP280;58439;51.046;13.692;2022-08-21T04:28:35;100108.69;;;18.06
70819;BMP280;58439;51.046;13.692;2022-08-21T04:31:03;100110.38;;;18.13
70819;BMP280;58439;51.046;13.692;2022-08-21T04:33:30;100113.56;;;18.15
70819;BMP280;58439;51.046;13.692;2022-08-21T04:35:57;100109.38;;;18.19
70819;BMP280;58439;51.046;13.692;2022-08-21T04:38:24;100110.94;;;18.15
70819;BMP280;58439;51.046;13.692;2022-08-21T04:40:51;100103.97;;;18.08
70819;BMP280;58439;51.046;13.692;2022-08-21T04:43:19;100102.66;;;18.11
70819;BMP280;58439;51.046;13.692;2022-08-21T04:45:49;100113.31;;;18.16
70819;BMP280;58439;51.046;13.692;2022-08-21T04:48:23;100114.22;;;18.22
70819;BMP280;58439;51.046;13.692;2022-08-21T04:51:10;100109.44;;;18.24
70819;BMP280;58439;51.046;13.692;2022-08-21T04:53:57;100108.81;;;18.33
70819;BMP280;58439;51.046;13.692;2022-08-21T04:59:19;100117.13;;;18.42
70819;BMP280;58439;51.046;13.692;2022-08-21T05:01:48;100117.91;;;18.43
70819;BMP280;58439;51.046;13.692;2022-08-21T05:04:21;100117.59;;;18.39
70819;BMP280;58439;51.046;13.692;2022-08-21T05:06:53;100125.44;;;18.51
70819;BMP280;58439;51.046;13.692;2022-08-21T05:09:23;100126.84;;;18.58
70819;BMP280;58439;51.046;13.692;2022-08-21T05:11:51;100133.09;;;18.69
70819;BMP280;58439;51.046;13.692;2022-08-21T05:14:21;100133.50;;;18.83
70819;BMP280;58439;51.046;13.692;2022-08-21T05:16:48;100117.19;;;18.96
70819;BMP280;58439;51.046;13.692;2022-08-21T05:19:15;100117.03;;;19.08
70819;BMP280;58439;51.046;13.692;2022-08-21T05:21:45;100115.06;;;19.20
70819;BMP280;58439;51.046;13.692;2022-08-21T05:24:15;100121.25;;;19.30
70819;BMP280;58439;51.046;13.692;2022-08-21T05:26:43;100122.09;;;19.36
70819;BMP280;58439;51.046;13.692;2022-08-21T05:29:14;100117.13;;;19.45
70819;BMP280;58439;51.046;13.692;2022-08-21T05:31:43;100125.63;;;19.47
70819;BMP280;58439;51.046;13.692;2022-08-21T05:34:13;100123.84;;;19.52
70819;BMP280;58439;51.046;13.692;2022-08-21T05:36:43;100131.53;;;19.54
70819;BMP280;58439;51.046;13.692;2022-08-21T05:39:10;100126.03;;;19.60
70819;BMP280;58439;51.046;13.692;2022-08-21T05:41:37;100126.06;;;19.66
70819;BMP280;58439;51.046;13.692;2022-08-21T05:44:04;100134.78;;;19.61
70819;BMP280;58439;51.046;13.692;2022-08-21T05:46:36;100130.25;;;19.61
70819;BMP280;58439;51.046;13.692;2022-08-21T05:49:03;100131.38;;;19.66
70819;BMP280;58439;51.046;13.692;2022-08-21T05:51:30;100131.69;;;19.74
70819;BMP280;58439;51.046;13.692;2022-08-21T05:53:58;100131.69;;;19.74
70819;BMP280;58439;51.046;13.692;2022-08-21T05:56:25;100130.63;;;19.75
70819;BMP280;58439;51.046;13.692;2022-08-21T05:58:52;100131.69;;;19.74
70819;BMP280;58439;51.046;13.692;2022-08-21T06:01:19;100121.38;;;19.78
70819;BMP280;58439;51.046;13.692;2022-08-21T06:03:46;100139.69;;;19.79
70819;BMP280;58439;51.046;13.692;2022-08-21T06:06:13;100132.81;;;19.83
70819;BMP280;58439;51.046;13.692;2022-08-21T06:08:40;100141.56;;;19.84
70819;BMP280;58439;51.046;13.692;2022-08-21T06:11:08;100133.34;;;19.85
70819;BMP280;58439;51.046;13.692;2022-08-21T06:13:36;100137.88;;;19.85
70819;BMP280;58439;51.046;13.692;2022-08-21T06:16:14;100147.13;;;19.82
70819;BMP280;58439;51.046;13.692;2022-08-21T06:18:44;100149.28;;;19.85
70819;BMP280;58439;51.046;13.692;2022-08-21T06:21:21;100151.41;;;19.83
70819;BMP280;58439;51.046;13.692;2022-08-21T06:23:58;100157.50;;;19.84
70819;BMP280;58439;51.046;13.692;2022-08-21T06:26:29;100156.19;;;19.86
70819;BMP280;58439;51.046;13.692;2022-08-21T06:28:57;100150.38;;;19.89
70819;BMP280;58439;51.046;13.692;2022-08-21T06:31:26;100144.53;;;19.92
70819;BMP280;58439;51.046;13.692;2022-08-21T06:33:54;100143.53;;;19.99
70819;BMP280;58439;51.046;13.692;2022-08-21T06:36:22;100136.44;;;20.09
70819;BMP280;58439;51.046;13.692;2022-08-21T06:38:49;100134.53;;;20.10
70819;BMP280;58439;51.046;13.692;2022-08-21T06:41:19;100133.53;;;20.16
70819;BMP280;58439;51.046;13.692;2022-08-21T06:43:50;100130.72;;;20.38
70819;BMP280;58439;51.046;13.692;2022-08-21T06:46:17;100128.88;;;20.48
70819;BMP280;58439;51.046;13.692;2022-08-21T06:48:45;100135.59;;;20.56
70819;BMP280;58439;51.046;13.692;2022-08-21T06:51:11;100130.56;;;20.65
70819;BMP280;58439;51.046;13.692;2022-08-21T06:53:39;100130.03;;;20.68
70819;BMP280;58439;51.046;13.692;2022-08-21T06:56:06;100141.22;;;20.80
70819;BMP280;58439;51.046;13.692;2022-08-21T06:58:33;100141.25;;;20.85
70819;BMP280;58439;51.046;13.692;2022-08-21T07:01:00;100138.31;;;20.86
70819;BMP280;58439;51.046;13.692;2022-08-21T07:03:30;100150.56;;;20.93
70819;BMP280;58439;51.046;13.692;2022-08-21T07:05:58;100138.88;;;20.99
70819;BMP280;58439;51.046;13.692;2022-08-21T07:08:26;100145.81;;;21.15
70819;BMP280;58439;51.046;13.692;2022-08-21T07:11:14;100132.78;;;21.39
70819;BMP280;58439;51.046;13.692;2022-08-21T07:13:53;100136.50;;;21.28
70819;BMP280;58439;51.046;13.692;2022-08-21T07:16:28;100136.53;;;21.23
70819;BMP280;58439;51.046;13.692;2022-08-21T07:18:59;100145.81;;;21.40
70819;BMP280;58439;51.046;13.692;2022-08-21T07:21:27;100141.84;;;21.43
70819;BMP280;58439;51.046;13.692;2022-08-21T07:23:53;100143.97;;;21.51
70819;BMP280;58439;51.046;13.692;2022-08-21T07:26:23;100142.31;;;21.60
70819;BMP280;58439;51.046;13.692;2022-08-21T07:28:51;100135.97;;;21.46
70819;BMP280;58439;51.046;13.692;2022-08-21T07:31:20;100136.78;;;21.46
70819;BMP280;58439;51.046;13.692;2022-08-21T07:33:48;100126.41;;;21.45
70819;BMP280;58439;51.046;13.692;2022-08-21T07:36:15;100126.66;;;21.53
70819;BMP280;58439;51.046;13.692;2022-08-21T07:38:42;100133.84;;;21.63
70819;BMP280;58439;51.046;13.692;2022-08-21T07:41:15;100143.66;;;21.78
70819;BMP280;58439;51.046;13.692;2022-08-21T07:43:44;100146.59;;;21.66
70819;BMP280;58439;51.046;13.692;2022-08-21T07:46:15;100145.78;;;21.55
70819;BMP280;58439;51.046;13.692;2022-08-21T07:48:48;100154.06;;;21.29
70819;BMP280;58439;51.046;13.692;2022-08-21T07:51:17;100151.66;;;21.12
70819;BMP280;58439;51.046;13.692;2022-08-21T07:53:49;100156.41;;;21.00
70819;BMP280;58439;51.046;13.692;2022-08-21T07:56:17;100153.50;;;21.06
70819;BMP280;58439;51.046;13.692;2022-08-21T07:58:45;100154.88;;;21.14
70819;BMP280;58439;51.046;13.692;2022-08-21T08:01:12;100161.22;;;21.23
70819;BMP280;58439;51.046;13.692;2022-08-21T08:03:43;100160.47;;;21.43
70819;BMP280;58439;51.046;13.692;2022-08-21T08:06:12;100171.91;;;21.59
70819;BMP280;58439;51.046;13.692;2022-08-21T08:08:40;100173.47;;;21.60
70819;BMP280;58439;51.046;13.692;2022-08-21T08:11:08;100174.31;;;21.55
70819;BMP280;58439;51.046;13.692;2022-08-21T08:13:39;100172.41;;;21.40
70819;BMP280;58439;51.046;13.692;2022-08-21T08:16:07;100167.09;;;21.35
70819;BMP280;58439;51.046;13.692;2022-08-21T08:18:34;100170.03;;;21.44
70819;BMP280;58439;51.046;13.692;2022-08-21T08:21:05;100171.66;;;21.45
70819;BMP280;58439;51.046;13.692;2022-08-21T08:23:33;100171.34;;;21.51
70819;BMP280;58439;51.046;13.692;2022-08-21T08:26:01;100177.75;;;21.71
70819;BMP280;58439;51.046;13.692;2022-08-21T08:28:32;100173.47;;;21.90
70819;BMP280;58439;51.046;13.692;2022-08-21T08:31:02;100167.50;;;22.24
70819;BMP280;58439;51.046;13.692;2022-08-21T08:33:30;100173.03;;;22.47
70819;BMP280;58439;51.046;13.692;2022-08-21T08:35:57;100174.00;;;22.62
70819;BMP280;58439;51.046;13.692;2022-08-21T08:38:28;100172.84;;;22.78
70819;BMP280;58439;51.046;13.692;2022-08-21T08:41:02;100169.34;;;22.88
70819;BMP280;58439;51.046;13.692;2022-08-21T08:43:34;100177.25;;;22.98
70819;BMP280;58439;51.046;13.692;2022-08-21T08:46:05;100176.25;;;22.89
70819;BMP280;58439;51.046;13.692;2022-08-21T08:48:43;100181.66;;;22.78
70819;BMP280;58439;51.046;13.692;2022-08-21T08:51:27;100178.75;;;22.70
70819;BMP280;58439;51.046;13.692;2022-08-21T08:54:00;100173.09;;;22.81
70819;BMP280;58439;51.046;13.692;2022-08-21T08:56:32;100180.50;;;22.90
70819;BMP280;58439;51.046;13.692;2022-08-21T08:59:07;100178.66;;;22.85
70819;BMP280;58439;51.046;13.692;2022-08-21T09:01:35;100182.31;;;22.99
70819;BMP280;58439;51.046;13.692;2022-08-21T09:04:05;100181.44;;;23.14
70819;BMP280;58439;51.046;13.692;2022-08-21T09:06:45;100178.91;;;23.28
70819;BMP280;58439;51.046;13.692;2022-08-21T09:15:22;100164.88;;;23.46
70819;BMP280;58439;51.046;13.692;2022-08-21T09:18:26;100168.69;;;23.64
70819;BMP280;58439;51.046;13.692;2022-08-21T09:21:13;100167.34;;;23.66
70819;BMP280;58439;51.046;13.692;2022-08-21T09:26:22;100156.16;;;23.64
70819;BMP280;58439;51.046;13.692;2022-08-21T09:28:56;100158.09;;;23.82
70819;BMP280;58439;51.046;13.692;2022-08-21T09:31:30;100151.75;;;24.02
70819;BMP280;58439;51.046;13.692;2022-08-21T09:34:04;100151.88;;;24.11
70819;BMP280;58439;51.046;13.692;2022-08-21T09:36:48;100146.47;;;24.16
70819;BMP280;58439;51.046;13.692;2022-08-21T09:39:27;100149.75;;;24.13
70819;BMP280;58439;51.046;13.692;2022-08-21T09:42:00;100152.84;;;24.20
70819;BMP280;58439;51.046;13.692;2022-08-21T09:44:31;100152.41;;;24.32
70819;BMP280;58439;51.046;13.692;2022-08-21T09:46:59;100150.63;;;24.27
70819;BMP280;58439;51.046;13.692;2022-08-21T09:49:32;100147.28;;;24.35
70819;BMP280;58439;51.046;13.692;2022-08-21T09:52:01;100151.56;;;24.55
70819;BMP280;58439;51.046;13.692;2022-08-21T09:54:35;100151.28;;;24.38
70819;BMP280;58439;51.046;13.692;2022-08-21T09:59:55;100150.72;;;24.41
70819;BMP280;58439;51.046;13.692;2022-08-21T10:02:36;100140.66;;;24.51
70819;BMP280;58439;51.046;13.692;2022-08-21T10:05:14;100145.34;;;24.60
70819;BMP280;58439;51.046;13.692;2022-08-21T10:07:42;100147.09;;;24.69
70819;BMP280;58439;51.046;13.692;2022-08-21T10:10:30;100145.75;;;24.67
70819;BMP280;58439;51.046;13.692;2022-08-21T10:13:20;100144.34;;;24.56
70819;BMP280;58439;51.046;13.692;2022-08-21T10:16:00;100148.38;;;24.53
70819;BMP280;58439;51.046;13.692;2022-08-21T10:18:41;100153.56;;;24.63
70819;BMP280;58439;51.046;13.692;2022-08-21T10:21:26;100148.91;;;24.55
70819;BMP280;58439;51.046;13.692;2022-08-21T10:24:20;100149.56;;;24.66
70819;BMP280;58439;51.046;13.692;2022-08-21T10:30:03;100155.81;;;24.75
70819;BMP280;58439;51.046;13.692;2022-08-21T10:43:20;100153.66;;;25.42
70819;BMP280;58439;51.046;13.692;2022-08-21T10:48:51;100145.03;;;25.45
70819;BMP280;58439;51.046;13.692;2022-08-21T10:51:37;100151.00;;;25.69
70819;BMP280;58439;51.046;13.692;2022-08-21T10:54:42;100147.72;;;25.59
70819;BMP280;58439;51.046;13.692;2022-08-21T10:57:26;100149.00;;;25.61
70819;BMP280;58439;51.046;13.692;2022-08-21T11:00:11;100145.81;;;25.45
70819;BMP280;58439;51.046;13.692;2022-08-21T11:02:51;100141.56;;;25.58
70819;BMP280;58439;51.046;13.692;2022-08-21T11:05:31;100154.38;;;25.75
70819;BMP280;58439;51.046;13.692;2022-08-21T11:08:09;100155.16;;;25.89
70819;BMP280;58439;51.046;13.692;2022-08-21T11:10:42;100156.47;;;26.28
70819;BMP280;58439;51.046;13.692;2022-08-21T11:13:40;100145.97;;;26.53
70819;BMP280;58439;51.046;13.692;2022-08-21T11:16:40;100155.81;;;26.44
70819;BMP280;58439;51.046;13.692;2022-08-21T11:19:24;100150.25;;;26.77
70819;BMP280;58439;51.046;13.692;2022-08-21T11:22:06;100152.16;;;27.07
70819;BMP280;58439;51.046;13.692;2022-08-21T11:27:27;100148.97;;;27.93
70819;BMP280;58439;51.046;13.692;2022-08-21T11:29:58;100147.72;;;29.15
70819;BMP280;58439;51.046;13.692;2022-08-21T11:35:32;100157.03;;;30.71
70819;BMP280;58439;51.046;13.692;2022-08-21T11:43:38;100156.16;;;31.52
70819;BMP280;58439;51.046;13.692;2022-08-21T11:46:29;100147.41;;;32.11
70819;BMP280;58439;51.046;13.692;2022-08-21T11:49:14;100143.72;;;32.31
70819;BMP280;58439;51.046;13.692;2022-08-21T11:51:53;100140.00;;;33.18
70819;BMP280;58439;51.046;13.692;2022-08-21T11:57:05;100136.41;;;33.49
70819;BMP280;58439;51.046;13.692;2022-08-21T11:59:42;100125.28;;;34.38
70819;BMP280;58439;51.046;13.692;2022-08-21T12:02:13;100138.78;;;35.06
70819;BMP280;58439;51.046;13.692;2022-08-21T12:04:47;100136.41;;;35.35
70819;BMP280;58439;51.046;13.692;2022-08-21T12:07:31;100132.69;;;35.83
70819;BMP280;58439;51.046;13.692;2022-08-21T12:10:03;100127.56;;;36.73
70819;BMP280;58439;51.046;13.692;2022-08-21T12:12:34;100134.53;;;37.54
70819;BMP280;58439;51.046;13.692;2022-08-21T12:17:53;100139.06;;;39.06
70819;BMP280;58439;51.046;13.692;2022-08-21T12:23:17;100130.53;;;38.89
70819;BMP280;58439;51.046;13.692;2022-08-21T12:28:45;100140.41;;;40.01
70819;BMP280;58439;51.046;13.692;2022-08-21T12:31:24;100127.19;;;41.97
70819;BMP280;58439;51.046;13.692;2022-08-21T12:34:01;100130.16;;;43.02
70819;BMP280;58439;51.046;13.692;2022-08-21T12:36:56;100132.97;;;41.80
70819;BMP280;58439;51.046;13.692;2022-08-21T12:39:26;100120.06;;;42.00
70819;BMP280;58439;51.046;13.692;2022-08-21T12:42:16;100130.75;;;40.64
70819;BMP280;58439;51.046;13.692;2022-08-21T12:44:50;100119.78;;;38.33
70819;BMP280;58439;51.046;13.692;2022-08-21T12:50:02;100111.31;;;36.29
70819;BMP280;58439;51.046;13.692;2022-08-21T12:52:39;100116.34;;;35.46
70819;BMP280;58439;51.046;13.692;2022-08-21T12:55:11;100113.41;;;34.27
70819;BMP280;58439;51.046;13.692;2022-08-21T12:57:40;100117.50;;;33.52
70819;BMP280;58439;51.046;13.692;2022-08-21T13:00:10;100120.53;;;32.50
70819;BMP280;58439;51.046;13.692;2022-08-21T13:02:48;100120.44;;;31.35
70819;BMP280;58439;51.046;13.692;2022-08-21T13:05:29;100119.94;;;31.17
70819;BMP280;58439;51.046;13.692;2022-08-21T13:07:57;100119.69;;;31.22
70819;BMP280;58439;51.046;13.692;2022-08-21T13:10:28;100119.44;;;31.39
70819;BMP280;58439;51.046;13.692;2022-08-21T13:12:59;100114.16;;;31.18
70819;BMP280;58439;51.046;13.692;2022-08-21T13:15:33;100109.31;;;30.87
70819;BMP280;58439;51.046;13.692;2022-08-21T13:18:02;100107.56;;;31.44
70819;BMP280;58439;51.046;13.692;2022-08-21T13:20:36;100109.59;;;31.47
70819;BMP280;58439;51.046;13.692;2022-08-21T13:25:50;100102.56;;;31.98
70819;BMP280;58439;51.046;13.692;2022-08-21T13:28:18;100101.22;;;32.83
70819;BMP280;58439;51.046;13.692;2022-08-21T13:30:49;100092.09;;;33.64
70819;BMP280;58439;51.046;13.692;2022-08-21T13:33:20;100105.53;;;34.41
70819;BMP280;58439;51.046;13.692;2022-08-21T13:36:02;100103.84;;;35.79
70819;BMP280;58439;51.046;13.692;2022-08-21T13:38:32;100104.34;;;39.61
70819;BMP280;58439;51.046;13.692;2022-08-21T13:41:04;100102.34;;;40.78
70819;BMP280;58439;51.046;13.692;2022-08-21T13:43:35;100108.13;;;39.78
70819;BMP280;58439;51.046;13.692;2022-08-21T13:46:09;100104.84;;;38.59
70819;BMP280;58439;51.046;13.692;2022-08-21T13:48:37;100101.28;;;39.45
70819;BMP280;58439;51.046;13.692;2022-08-21T13:51:04;100109.47;;;38.86
70819;BMP280;58439;51.046;13.692;2022-08-21T13:53:43;100110.28;;;37.28
70819;BMP280;58439;51.046;13.692;2022-08-21T13:56:33;100107.94;;;37.33
70819;BMP280;58439;51.046;13.692;2022-08-21T13:59:29;100110.94;;;38.98
70819;BMP280;58439;51.046;13.692;2022-08-21T14:02:16;100109.50;;;40.72
70819;BMP280;58439;51.046;13.692;2022-08-21T14:04:58;100100.50;;;39.48
70819;BMP280;58439;51.046;13.692;2022-08-21T14:07:33;100097.00;;;37.15
70819;BMP280;58439;51.046;13.692;2022-08-21T14:10:11;100093.41;;;34.88
70819;BMP280;58439;51.046;13.692;2022-08-21T14:15:18;100104.28;;;32.50
70819;BMP280;58439;51.046;13.692;2022-08-21T14:17:52;100088.63;;;31.84
70819;BMP280;58439;51.046;13.692;2022-08-21T14:20:51;100097.59;;;30.96
70819;BMP280;58439;51.046;13.692;2022-08-21T14:23:28;100096.94;;;30.29
70819;BMP280;58439;51.046;13.692;2022-08-21T14:26:04;100097.31;;;30.40
70819;BMP280;58439;51.046;13.692;2022-08-21T14:28:41;100097.19;;;30.81
70819;BMP280;58439;51.046;13.692;2022-08-21T14:31:17;100094.78;;;30.80
70819;BMP280;58439;51.046;13.692;2022-08-21T14:33:48;100088.47;;;30.64
70819;BMP280;58439;51.046;13.692;2022-08-21T14:36:16;100092.56;;;30.25
70819;BMP280;58439;51.046;13.692;2022-08-21T14:38:47;100091.56;;;30.41
70819;BMP280;58439;51.046;13.692;2022-08-21T14:41:22;100092.00;;;30.31
70819;BMP280;58439;51.046;13.692;2022-08-21T14:43:55;100089.16;;;30.28
70819;BMP280;58439;51.046;13.692;2022-08-21T14:46:36;100092.47;;;30.33
70819;BMP280;58439;51.046;13.692;2022-08-21T14:49:23;100088.75;;;30.38
70819;BMP280;58439;51.046;13.692;2022-08-21T14:51:51;100094.63;;;30.52
70819;BMP280;58439;51.046;13.692;2022-08-21T14:54:27;100101.50;;;29.84
70819;BMP280;58439;51.046;13.692;2022-08-21T14:57:04;100092.97;;;29.02
70819;BMP280;58439;51.046;13.692;2022-08-21T14:59:32;100097.63;;;28.76
70819;BMP280;58439;51.046;13.692;2022-08-21T15:02:01;100094.09;;;29.51
70819;BMP280;58439;51.046;13.692;2022-08-21T15:04:28;100087.41;;;29.78
70819;BMP280;58439;51.046;13.692;2022-08-21T15:06:55;100087.41;;;29.57
70819;BMP280;58439;51.046;13.692;2022-08-21T15:09:22;100096.00;;;29.51
70819;BMP280;58439;51.046;13.692;2022-08-21T15:11:52;100092.09;;;29.39
70819;BMP280;58439;51.046;13.692;2022-08-21T15:14:22;100088.63;;;29.39